createdAt,value
2022-12-08T00:01:15.434Z,48.21
2022-12-08T00:03:48.295Z,48.33
2022-12-08T00:06:56.348Z,48.10
2022-12-08T00:09:40.445Z,48.37
2022-12-08T00:12:16.650Z,48.85
2022-12-08T00:14:49.871Z,48.57
2022-12-08T00:17:22.403Z,47.69
2022-12-08T00:19:54.918Z,48.78
2022-12-08T00:22:29.082Z,48.57
2022-12-08T00:25:01.759Z,48.25
2022-12-08T00:27:34.495Z,48.84
2022-12-08T00:30:07.965Z,48.73
2022-12-08T00:32:40.495Z,48.71
2022-12-08T00:35:13.028Z,48.49
2022-12-08T00:37:45.773Z,48.29
2022-12-08T00:40:18.460Z,48.42
2022-12-08T00:42:50.927Z,48.83
2022-12-08T00:45:23.408Z,48.41
2022-12-08T00:47:55.917Z,48.75
2022-12-08T00:50:28.399Z,48.54
2022-12-08T00:53:00.900Z,48.64
2022-12-08T00:55:33.440Z,48.64
2022-12-08T00:58:05.944Z,48.52
2022-12-08T01:00:41.926Z,48.56
2022-12-08T01:03:15.127Z,48.73
2022-12-08T01:05:47.759Z,48.93
2022-12-08T01:08:20.297Z,48.69
2022-12-08T01:10:52.828Z,48.64
2022-12-08T01:13:25.351Z,48.84
2022-12-08T01:15:57.921Z,48.56
2022-12-08T01:18:31.476Z,49.39
2022-12-08T01:21:08.409Z,48.43
2022-12-08T01:23:41.028Z,48.94
2022-12-08T01:26:16.897Z,49.30
2022-12-08T01:28:49.532Z,49.41
2022-12-08T01:31:23.459Z,49.16
2022-12-08T01:33:56.538Z,48.65
2022-12-08T01:36:32.281Z,48.28
2022-12-08T01:39:10.294Z,48.60
2022-12-08T01:41:43.839Z,48.75
2022-12-08T01:44:16.258Z,48.71
2022-12-08T01:46:48.866Z,49.13
2022-12-08T01:49:26.640Z,49.18
2022-12-08T01:52:09.371Z,49.69
2022-12-08T01:55:02.485Z,49.89
2022-12-08T01:57:45.416Z,48.79
2022-12-08T02:00:21.532Z,48.63
2022-12-08T02:03:01.478Z,49.26
2022-12-08T02:05:39.789Z,48.82
2022-12-08T02:08:14.104Z,49.42
2022-12-08T02:10:47.355Z,49.58
2022-12-08T02:13:24.306Z,48.91
2022-12-08T02:16:29.856Z,48.58
2022-12-08T02:19:33.316Z,48.66
2022-12-08T02:22:46.553Z,49.80
2022-12-08T02:25:36.794Z,49.55
2022-12-08T02:28:40.550Z,48.96
2022-12-08T02:31:49.809Z,49.80
2022-12-08T02:34:44.321Z,48.85
2022-12-08T02:37:20.892Z,48.79
2022-12-08T02:40:08.269Z,49.41
2022-12-08T02:43:01.385Z,49.29
2022-12-08T02:45:44.864Z,48.76
2022-12-08T02:48:17.541Z,48.93
2022-12-08T02:50:50.011Z,49.66
2022-12-08T02:53:22.477Z,49.25
2022-12-08T02:56:06.321Z,49.07
2022-12-08T02:58:50.360Z,49.11
2022-12-08T03:01:46.557Z,49.89
2022-12-08T03:04:41.741Z,49.87
2022-12-08T03:07:27.401Z,49.69
2022-12-08T03:10:06.318Z,49.17
2022-12-08T03:12:49.660Z,49.68
2022-12-08T03:15:22.607Z,49.62
2022-12-08T03:17:58.953Z,49.85
2022-12-08T03:20:34.595Z,49.02
2022-12-08T03:23:12.799Z,49.17
2022-12-08T03:26:00.949Z,49.96
2022-12-08T03:28:33.695Z,49.43
2022-12-08T03:31:12.053Z,49.58
2022-12-08T03:33:51.594Z,49.87
2022-12-08T03:36:25.796Z,48.68
2022-12-08T03:38:58.245Z,49.62
2022-12-08T03:41:30.796Z,48.57
2022-12-08T03:44:03.543Z,49.23
2022-12-08T03:46:36.078Z,48.44
2022-12-08T03:49:08.628Z,49.17
2022-12-08T03:51:41.097Z,49.60
2022-12-08T03:54:13.624Z,49.84
2022-12-08T03:56:46.232Z,49.81
2022-12-08T03:59:18.767Z,49.25
2022-12-08T04:01:51.326Z,49.51
2022-12-08T04:04:23.938Z,48.89
2022-12-08T04:06:56.654Z,49.45
2022-12-08T04:09:29.251Z,49.28
2022-12-08T04:12:01.751Z,48.55
2022-12-08T04:14:34.289Z,49.49
2022-12-08T04:17:06.789Z,49.99
2022-12-08T04:19:40.846Z,49.49
2022-12-08T04:22:13.496Z,49.80
2022-12-08T04:24:46.023Z,49.20
2022-12-08T04:27:18.521Z,49.35
2022-12-08T04:29:51.012Z,49.66
2022-12-08T04:32:23.472Z,49.17
2022-12-08T04:34:55.938Z,49.33
2022-12-08T04:37:29.070Z,49.22
2022-12-08T04:40:01.728Z,49.43
2022-12-08T04:42:34.308Z,48.45
2022-12-08T04:45:07.383Z,48.71
2022-12-08T04:47:39.914Z,48.89
2022-12-08T04:50:13.106Z,49.21
2022-12-08T04:52:45.670Z,49.71
2022-12-08T04:55:18.289Z,49.33
2022-12-08T04:57:50.980Z,49.60
2022-12-08T05:00:23.589Z,49.80
2022-12-08T05:02:56.181Z,49.65
2022-12-08T05:05:28.720Z,49.15
2022-12-08T05:08:01.356Z,48.77
2022-12-08T05:10:33.958Z,49.47
2022-12-08T05:13:06.623Z,48.57
2022-12-08T05:15:39.312Z,49.33
2022-12-08T05:18:11.865Z,48.91
2022-12-08T05:20:44.396Z,49.80
2022-12-08T05:23:16.903Z,49.10
2022-12-08T05:25:49.368Z,49.23
2022-12-08T05:31:16.943Z,48.69
2022-12-08T05:33:53.037Z,48.79
2022-12-08T05:36:25.521Z,49.99
2022-12-08T05:38:58.646Z,49.19
2022-12-08T05:41:31.112Z,49.78
2022-12-08T05:44:03.609Z,49.01
2022-12-08T05:46:36.727Z,48.87
2022-12-08T05:49:09.268Z,49.71
2022-12-08T05:51:41.805Z,49.12
2022-12-08T05:54:14.431Z,48.77
2022-12-08T05:56:46.946Z,48.87
2022-12-08T05:59:22.536Z,49.59
2022-12-08T06:01:55.106Z,48.98
2022-12-08T06:04:27.842Z,49.07
2022-12-08T06:07:00.354Z,49.83
2022-12-08T06:09:32.878Z,49.36
2022-12-08T06:12:05.916Z,49.06
2022-12-08T06:14:41.538Z,50.03
2022-12-08T06:17:14.133Z,49.60
2022-12-08T06:19:46.707Z,49.64
2022-12-08T06:22:19.512Z,49.55
2022-12-08T06:24:52.327Z,48.80
2022-12-08T06:27:24.933Z,49.03
2022-12-08T06:29:57.762Z,49.32
2022-12-08T06:32:30.526Z,48.92
2022-12-08T06:35:03.420Z,49.80
2022-12-08T06:37:36.525Z,49.30
2022-12-08T06:40:15.843Z,48.74
2022-12-08T06:42:48.384Z,48.94
2022-12-08T06:45:20.849Z,48.98
2022-12-08T06:47:53.417Z,48.27
2022-12-08T06:50:25.928Z,49.20
2022-12-08T06:53:04.774Z,48.95
2022-12-08T06:58:30.383Z,48.13
2022-12-08T07:01:13.007Z,48.43
2022-12-08T07:03:46.286Z,48.48
2022-12-08T07:06:23.465Z,48.12
2022-12-08T07:08:56.053Z,48.32
2022-12-08T07:11:28.532Z,47.72
2022-12-08T07:14:01.077Z,48.09
2022-12-08T07:16:33.977Z,48.33
2022-12-08T07:19:07.644Z,48.27
2022-12-08T07:21:40.233Z,48.53
2022-12-08T07:24:13.212Z,48.35
2022-12-08T07:26:45.785Z,48.38
2022-12-08T07:29:21.725Z,47.54
2022-12-08T07:31:58.524Z,47.92
2022-12-08T07:34:31.086Z,48.40
2022-12-08T07:37:12.588Z,47.60
2022-12-08T07:39:45.089Z,47.77
2022-12-08T07:42:17.941Z,47.44
2022-12-08T07:44:50.735Z,47.89
2022-12-08T07:47:23.297Z,47.19
2022-12-08T07:49:55.851Z,47.36
2022-12-08T07:52:28.482Z,47.77
2022-12-08T07:55:01.041Z,47.43
2022-12-08T07:57:33.565Z,47.34
2022-12-08T08:00:07.447Z,48.07
2022-12-08T08:02:40.302Z,47.74
2022-12-08T08:05:13.057Z,46.95
2022-12-08T08:07:46.657Z,47.42
2022-12-08T08:10:19.258Z,47.43
2022-12-08T08:12:51.843Z,47.54
2022-12-08T08:15:24.368Z,47.69
2022-12-08T08:17:56.829Z,47.84
2022-12-08T08:20:29.417Z,46.87
2022-12-08T08:23:01.944Z,47.76
2022-12-08T08:25:34.473Z,46.82
2022-12-08T08:28:07.005Z,47.50
2022-12-08T08:30:39.830Z,47.44
2022-12-08T08:33:13.075Z,47.60
2022-12-08T08:35:45.665Z,46.75
2022-12-08T08:38:18.189Z,47.73
2022-12-08T08:40:50.824Z,47.64
2022-12-08T08:43:34.292Z,47.20
2022-12-08T08:46:10.881Z,47.31
2022-12-08T08:48:43.650Z,47.36
2022-12-08T08:51:16.217Z,47.27
2022-12-08T08:53:48.823Z,47.38
2022-12-08T08:56:21.387Z,47.31
2022-12-08T08:58:54.031Z,47.77
2022-12-08T09:01:28.653Z,47.41
2022-12-08T09:04:01.616Z,46.82
2022-12-08T09:06:34.290Z,47.71
2022-12-08T09:09:06.826Z,46.78
2022-12-08T09:11:39.413Z,47.30
2022-12-08T09:14:15.270Z,47.30
2022-12-08T09:16:47.876Z,46.60
2022-12-08T09:19:20.575Z,46.62
2022-12-08T09:21:54.336Z,47.15
2022-12-08T09:24:27.096Z,46.78
2022-12-08T09:26:59.604Z,47.29
2022-12-08T09:29:36.016Z,46.82
2022-12-08T09:32:09.054Z,46.54
2022-12-08T09:34:41.525Z,46.78
2022-12-08T09:37:14.078Z,47.13
2022-12-08T09:39:47.123Z,47.24
2022-12-08T09:42:44.618Z,46.88
2022-12-08T09:45:19.986Z,46.76
2022-12-08T09:48:16.993Z,47.02
2022-12-08T09:50:58.322Z,47.11
2022-12-08T09:53:44.106Z,47.21
2022-12-08T09:56:22.729Z,47.28
2022-12-08T09:59:13.324Z,47.28
2022-12-08T10:01:45.944Z,46.38
2022-12-08T10:04:41.165Z,46.40
2022-12-08T10:07:43.523Z,46.87
2022-12-08T10:10:31.880Z,46.63
2022-12-08T10:13:40.862Z,47.15
2022-12-08T10:16:42.381Z,47.10
2022-12-08T10:19:27.576Z,46.34
2022-12-08T10:22:02.317Z,46.64
2022-12-08T10:24:52.598Z,46.81
2022-12-08T10:27:26.095Z,46.76
2022-12-08T10:29:59.782Z,46.51
2022-12-08T10:32:35.661Z,47.00
2022-12-08T10:35:17.113Z,46.97
2022-12-08T10:38:03.829Z,47.05
2022-12-08T10:40:43.796Z,46.52
2022-12-08T10:43:27.066Z,46.45
2022-12-08T10:46:22.439Z,46.76
2022-12-08T10:49:12.990Z,46.18
2022-12-08T10:51:45.509Z,46.72
2022-12-08T10:54:38.356Z,46.88
2022-12-08T10:57:21.938Z,46.80
2022-12-08T10:59:55.955Z,46.99
2022-12-08T11:02:28.461Z,46.70
2022-12-08T11:05:01.109Z,46.46
2022-12-08T11:07:33.857Z,46.34
2022-12-08T11:10:17.098Z,46.59
2022-12-08T11:12:50.412Z,46.16
2022-12-08T11:15:22.957Z,46.65
2022-12-08T11:18:10.450Z,46.68
2022-12-08T11:20:42.933Z,46.15
2022-12-08T11:23:25.259Z,47.11
2022-12-08T11:26:07.215Z,46.85
2022-12-08T11:28:40.173Z,46.42
2022-12-08T11:31:34.477Z,46.60
2022-12-08T11:34:20.357Z,46.75
2022-12-08T11:36:55.479Z,47.00
2022-12-08T11:39:34.658Z,46.46
2022-12-08T11:42:14.035Z,46.71
2022-12-08T11:44:58.670Z,46.96
2022-12-08T11:47:43.436Z,46.50
2022-12-08T11:50:39.271Z,46.83
2022-12-08T11:53:30.336Z,46.29
2022-12-08T11:56:16.766Z,46.80
2022-12-08T11:58:59.145Z,46.48
2022-12-08T12:01:31.673Z,46.72
2022-12-08T12:04:18.148Z,46.69
2022-12-08T12:07:24.575Z,46.81
2022-12-08T12:10:53.000Z,46.94
2022-12-08T12:14:00.151Z,46.70
2022-12-08T12:16:54.073Z,46.35
2022-12-08T12:19:32.917Z,46.37
2022-12-08T12:22:20.100Z,46.63
2022-12-08T12:24:53.292Z,46.46
2022-12-08T12:27:39.101Z,46.73
2022-12-08T12:30:26.267Z,46.60
2022-12-08T12:33:01.956Z,45.95
2022-12-08T12:35:43.692Z,46.26
2022-12-08T12:38:50.412Z,46.71
2022-12-08T12:41:43.952Z,46.41
2022-12-08T12:44:19.113Z,46.60
2022-12-08T12:46:54.442Z,46.93
2022-12-08T12:49:39.303Z,46.57
2022-12-08T12:52:23.382Z,46.60
2022-12-08T12:54:58.750Z,46.29
2022-12-08T12:57:55.252Z,46.55
2022-12-08T13:00:28.060Z,46.60
2022-12-08T13:03:00.847Z,46.48
2022-12-08T13:05:49.829Z,47.23
2022-12-08T13:08:27.734Z,46.77
2022-12-08T13:11:04.361Z,46.35
2022-12-08T13:16:41.495Z,46.17
2022-12-08T13:19:16.750Z,46.33
2022-12-08T13:21:49.393Z,46.29
2022-12-08T13:24:47.591Z,47.04
2022-12-08T13:27:51.460Z,47.16
2022-12-08T13:30:51.885Z,46.59
2022-12-08T13:33:33.911Z,46.48
2022-12-08T13:36:33.226Z,46.24
2022-12-08T13:39:07.428Z,46.11
2022-12-08T13:42:02.145Z,46.59
2022-12-08T13:48:23.391Z,46.62
2022-12-08T13:57:34.803Z,46.45
2022-12-08T14:00:27.415Z,46.31
2022-12-08T14:03:02.056Z,46.25
2022-12-08T14:06:11.084Z,46.48
2022-12-08T14:09:00.125Z,46.41
2022-12-08T14:11:56.588Z,46.46
2022-12-08T14:15:04.331Z,46.51
2022-12-08T14:18:02.886Z,46.93
2022-12-08T14:21:12.178Z,46.59
2022-12-08T14:23:36.678Z,46.36
2022-12-08T14:26:12.929Z,46.60
2022-12-08T14:28:45.541Z,46.29
2022-12-08T14:31:18.184Z,46.10
2022-12-08T14:33:56.227Z,46.15
2022-12-08T14:36:33.621Z,47.01
2022-12-08T14:39:06.398Z,46.55
2022-12-08T14:41:39.297Z,45.93
2022-12-08T14:44:33.156Z,46.74
2022-12-08T14:47:10.804Z,46.39
2022-12-08T14:49:44.453Z,46.69
2022-12-08T14:52:17.101Z,46.30
2022-12-08T14:54:54.768Z,46.96
2022-12-08T14:57:35.367Z,46.61
2022-12-08T15:00:19.053Z,46.30
2022-12-08T15:02:51.691Z,46.74
2022-12-08T15:05:32.591Z,46.56
2022-12-08T15:08:09.752Z,46.70
2022-12-08T15:10:48.036Z,46.97
2022-12-08T15:13:22.788Z,46.50
2022-12-08T15:16:01.409Z,46.48
2022-12-08T15:18:40.514Z,46.84
2022-12-08T15:21:13.123Z,46.72
2022-12-08T15:23:50.583Z,46.69
2022-12-08T15:26:39.063Z,46.57
2022-12-08T15:29:31.556Z,46.41
2022-12-08T15:32:09.510Z,46.75
2022-12-08T15:34:42.300Z,47.07
2022-12-08T15:37:31.341Z,47.37
2022-12-08T15:40:15.103Z,46.84
2022-12-08T15:42:48.802Z,47.55
2022-12-08T15:45:32.236Z,47.58
2022-12-08T15:48:12.627Z,47.11
2022-12-08T15:50:46.715Z,46.97
2022-12-08T15:53:25.363Z,47.04
2022-12-08T15:59:01.478Z,47.07
2022-12-08T16:01:34.278Z,46.93
2022-12-08T16:04:59.819Z,46.94
2022-12-08T16:07:21.904Z,46.85
2022-12-08T16:09:56.647Z,47.04
2022-12-08T16:13:47.988Z,47.04
2022-12-08T16:15:53.598Z,46.98
2022-12-08T16:18:38.232Z,46.77
2022-12-08T16:21:35.497Z,46.70
2022-12-08T16:24:12.315Z,46.93
2022-12-08T16:27:58.051Z,47.09
2022-12-08T16:29:46.992Z,46.52
2022-12-08T16:32:19.728Z,46.57
2022-12-08T16:34:59.333Z,47.12
2022-12-08T16:37:41.176Z,47.32
2022-12-08T16:40:14.369Z,46.95
2022-12-08T16:42:50.291Z,46.84
2022-12-08T16:45:29.977Z,47.18
2022-12-08T16:48:05.435Z,46.91
2022-12-08T16:50:45.722Z,47.38
2022-12-08T16:53:23.481Z,46.80
2022-12-08T16:56:04.211Z,46.50
2022-12-08T16:58:36.797Z,47.41
2022-12-08T17:01:19.075Z,47.02
2022-12-08T17:04:22.467Z,46.87
2022-12-08T17:06:47.452Z,47.05
2022-12-08T17:09:23.044Z,46.83
2022-12-08T17:12:00.319Z,47.46
2022-12-08T17:14:36.238Z,46.84
2022-12-08T17:17:09.871Z,47.17
2022-12-08T17:19:42.541Z,46.80
2022-12-08T17:22:15.219Z,46.53
2022-12-08T17:25:04.237Z,46.98
2022-12-08T17:27:38.018Z,46.80
2022-12-08T17:30:15.582Z,46.98
2022-12-08T17:32:48.243Z,47.03
2022-12-08T17:35:21.604Z,47.10
2022-12-08T17:37:54.183Z,46.91
2022-12-08T17:40:44.705Z,47.62
2022-12-08T17:43:17.311Z,47.11
2022-12-08T17:45:50.087Z,47.12
2022-12-08T17:48:29.715Z,47.17
2022-12-08T17:51:02.383Z,46.88
2022-12-08T17:53:40.676Z,47.09
2022-12-08T17:56:20.612Z,47.26
2022-12-08T17:58:54.985Z,47.62
2022-12-08T18:01:36.731Z,47.12
2022-12-08T18:04:11.361Z,46.78
2022-12-08T18:06:44.023Z,47.36
2022-12-08T18:09:19.979Z,47.45
2022-12-08T18:11:52.586Z,47.13
2022-12-08T18:14:25.743Z,47.30
2022-12-08T18:17:04.359Z,47.20
2022-12-08T18:19:37.307Z,47.39
2022-12-08T18:22:21.985Z,47.70
2022-12-08T18:24:54.524Z,47.34
2022-12-08T18:27:27.157Z,46.68
2022-12-08T18:30:00.525Z,47.35
2022-12-08T18:32:33.706Z,47.37
2022-12-08T18:35:06.915Z,47.00
2022-12-08T18:37:45.680Z,46.98
2022-12-08T18:40:18.402Z,47.40
2022-12-08T18:42:50.920Z,46.98
2022-12-08T18:45:23.712Z,47.05
2022-12-08T18:48:05.676Z,47.06
2022-12-08T18:50:44.661Z,47.52
2022-12-08T18:53:17.165Z,47.71
2022-12-08T18:55:51.006Z,47.63
2022-12-08T18:58:23.571Z,46.90
2022-12-08T19:00:56.206Z,47.36
2022-12-08T19:03:30.850Z,47.41
2022-12-08T19:06:06.314Z,47.60
2022-12-08T19:08:39.436Z,47.91
2022-12-08T19:11:27.692Z,47.95
2022-12-08T19:14:07.848Z,47.12
2022-12-08T19:19:28.190Z,46.95
2022-12-08T19:22:09.635Z,47.29
2022-12-08T19:24:42.346Z,47.46
2022-12-08T19:27:14.863Z,47.68
2022-12-08T19:29:47.500Z,47.22
2022-12-08T19:32:27.134Z,47.74
2022-12-08T19:35:07.321Z,47.67
2022-12-08T19:37:45.890Z,48.06
2022-12-08T19:40:44.839Z,47.56
2022-12-08T19:44:04.196Z,47.72
2022-12-08T19:46:40.651Z,47.69
2022-12-08T19:49:15.545Z,47.62
2022-12-08T19:51:48.187Z,47.85
2022-12-08T19:54:20.809Z,47.78
2022-12-08T19:56:56.746Z,47.69
2022-12-08T19:59:32.625Z,47.27
2022-12-08T20:02:13.251Z,47.69
2022-12-08T20:05:01.543Z,47.63
2022-12-08T20:07:55.741Z,47.45
2022-12-08T20:11:22.539Z,47.22
2022-12-08T20:16:54.236Z,47.52
2022-12-08T20:19:27.538Z,46.92
2022-12-08T20:22:00.236Z,47.15
2022-12-08T20:24:32.991Z,47.11
2022-12-08T20:27:08.462Z,47.51
2022-12-08T20:29:41.039Z,47.53
2022-12-08T20:32:13.639Z,46.89
2022-12-08T20:34:46.249Z,47.40
2022-12-08T20:37:19.975Z,47.05
2022-12-08T20:39:52.684Z,46.75
2022-12-08T20:42:32.723Z,47.43
2022-12-08T20:45:08.987Z,47.18
2022-12-08T20:47:41.823Z,46.56
2022-12-08T20:50:14.538Z,47.19
2022-12-08T20:52:53.492Z,47.03
2022-12-08T20:55:26.345Z,46.71
2022-12-08T20:58:02.258Z,46.96
2022-12-08T21:00:35.275Z,46.74
2022-12-08T21:03:21.083Z,47.02
2022-12-08T21:08:51.361Z,46.47
2022-12-08T21:11:25.926Z,47.42
2022-12-08T21:14:21.669Z,46.20
2022-12-08T21:17:00.507Z,46.85
2022-12-08T21:19:34.362Z,46.73
2022-12-08T21:22:07.063Z,46.40
2022-12-08T21:24:40.076Z,46.80
2022-12-08T21:27:12.909Z,46.72
2022-12-08T21:29:45.592Z,46.70
2022-12-08T21:32:18.303Z,47.06
2022-12-08T21:34:50.937Z,46.81
2022-12-08T21:37:24.663Z,47.04
2022-12-08T21:39:57.306Z,46.84
2022-12-08T21:42:45.056Z,46.59
2022-12-08T21:45:20.918Z,47.03
2022-12-08T21:47:54.073Z,46.99
2022-12-08T21:50:26.887Z,46.92
2022-12-08T21:53:00.499Z,47.13
2022-12-08T21:55:33.062Z,46.86
2022-12-08T21:58:05.940Z,46.78
2022-12-08T22:00:39.893Z,47.25
2022-12-08T22:03:15.362Z,46.36
2022-12-08T22:06:16.725Z,46.66
2022-12-08T22:08:49.560Z,46.50
2022-12-08T22:11:23.925Z,46.99
2022-12-08T22:13:57.726Z,47.19
2022-12-08T22:16:45.582Z,47.16
2022-12-08T22:19:18.766Z,46.81
2022-12-08T22:21:52.552Z,46.61
2022-12-08T22:24:26.435Z,47.09
2022-12-08T22:26:59.201Z,47.45
2022-12-08T22:29:31.962Z,47.30
2022-12-08T22:32:17.096Z,47.10
2022-12-08T22:34:51.040Z,47.60
2022-12-08T22:37:24.242Z,46.86
2022-12-08T22:39:56.963Z,47.33
2022-12-08T22:42:29.755Z,47.11
2022-12-08T22:45:11.845Z,47.50
2022-12-08T22:47:44.368Z,46.82
2022-12-08T22:50:17.274Z,47.13
2022-12-08T22:52:49.995Z,47.65
2022-12-08T22:55:22.688Z,47.43
2022-12-08T22:57:58.320Z,47.04
2022-12-08T23:00:34.079Z,47.25
2022-12-08T23:03:07.194Z,47.00
2022-12-08T23:05:41.561Z,47.16
2022-12-08T23:08:21.808Z,47.68
2022-12-08T23:11:03.766Z,47.46
2022-12-08T23:13:44.140Z,47.66
2022-12-08T23:16:22.639Z,47.46
2022-12-08T23:19:03.754Z,47.14
2022-12-08T23:21:49.765Z,46.98
2022-12-08T23:24:22.446Z,47.70
2022-12-08T23:26:55.074Z,47.95
2022-12-08T23:32:23.329Z,47.60
2022-12-08T23:34:59.038Z,47.35
2022-12-08T23:37:34.810Z,47.85
2022-12-08T23:40:08.871Z,47.22
2022-12-08T23:42:41.564Z,46.87
2022-12-08T23:45:14.231Z,47.37
2022-12-08T23:47:46.748Z,47.31
2022-12-08T23:50:19.628Z,47.94
2022-12-08T23:53:02.393Z,47.79
2022-12-08T23:55:35.299Z,47.95
2022-12-08T23:58:08.242Z,47.65
